Time;durP1;ratioP1;P1;durP2;ratioP2;P2;SDS_P1;SDS_P2;PMS_P1;PMS_P2;Temp;Humidity;BMP_temperature;BMP_pressure;BME280_temperature;BME280_humidity;BME280_pressure;Samples;Min_cycle;Max_cycle;Signal;HPM_P1;HPM_P2
2022/06/29 00:00:22;;;;;;;4.95;1.50;;;18.70;54.40;;;;;;5050054;28;20045;-68
2022/06/29 00:02:48;;;;;;;2.75;1.30;;;18.70;54.40;;;;;;5051782;28;20068;-69
2022/06/29 00:05:16;;;;;;;2.90;1.30;;;18.60;54.40;;;;;;5045925;28;20068;-70
2022/06/29 00:07:43;;;;;;;3.00;1.13;;;18.60;54.50;;;;;;5051507;28;20045;-69
2022/06/29 00:10:10;;;;;;;3.72;1.42;;;18.50;54.60;;;;;;5051182;28;20510;-69
2022/06/29 00:12:36;;;;;;;3.42;1.60;;;18.50;54.60;;;;;;5051874;28;20058;-69
2022/06/29 00:15:03;;;;;;;4.40;1.58;;;18.50;54.70;;;;;;5050522;28;20041;-69
2022/06/29 00:17:31;;;;;;;3.03;1.30;;;18.50;54.80;;;;;;5050732;28;20044;-69
2022/06/29 00:19:58;;;;;;;2.60;1.55;;;18.50;54.80;;;;;;5051204;28;20045;-71
2022/06/29 00:22:24;;;;;;;3.40;1.80;;;18.40;54.80;;;;;;5052045;28;20150;-69
2022/06/29 00:24:50;;;;;;;3.20;1.60;;;18.40;54.90;;;;;;5043182;28;20045;-69
2022/06/29 00:27:16;;;;;;;3.35;1.73;;;18.40;54.90;;;;;;5050460;28;20052;-69
2022/06/29 00:29:42;;;;;;;4.93;1.83;;;18.40;55.00;;;;;;5052540;28;20413;-69
2022/06/29 00:32:08;;;;;;;2.97;1.35;;;18.30;55.00;;;;;;5050236;28;20071;-69
2022/06/29 00:34:34;;;;;;;1.83;1.02;;;18.30;55.10;;;;;;5050139;28;20052;-69
2022/06/29 00:37:00;;;;;;;3.53;1.15;;;18.30;55.10;;;;;;5051590;28;20048;-69
2022/06/29 00:39:27;;;;;;;2.13;1.13;;;18.20;55.20;;;;;;5051535;28;20396;-69
2022/06/29 00:41:53;;;;;;;3.05;1.50;;;18.20;55.20;;;;;;5033418;28;20037;-68
2022/06/29 00:44:20;;;;;;;4.63;1.90;;;18.20;55.30;;;;;;5041283;28;20037;-69
2022/06/29 00:47:09;;;;;;;4.97;1.85;;;18.10;55.30;;;;;;5053717;28;20053;-69
2022/06/29 00:49:35;;;;;;;4.97;1.60;;;18.10;55.30;;;;;;5049183;28;20059;-69
2022/06/29 00:52:12;;;;;;;3.25;1.77;;;18.10;55.30;;;;;;5051721;28;20106;-69
2022/06/29 00:54:40;;;;;;;2.55;1.35;;;18.00;55.30;;;;;;5048512;28;20057;-69
2022/06/29 00:57:08;;;;;;;3.45;1.95;;;17.90;55.50;;;;;;5051634;28;20492;-69
2022/06/29 00:59:42;;;;;;;3.97;2.00;;;17.90;55.70;;;;;;5047071;28;20052;-69
2022/06/29 01:02:07;;;;;;;5.20;2.05;;;17.80;55.90;;;;;;5046638;28;20042;-69
2022/06/29 01:04:33;;;;;;;4.60;1.90;;;17.70;56.00;;;;;;5046394;28;20049;-69
2022/06/29 01:06:59;;;;;;;2.47;1.42;;;17.60;56.20;;;;;;5049528;28;20080;-69
2022/06/29 01:09:25;;;;;;;3.53;1.77;;;17.50;56.40;;;;;;5049506;28;20037;-69
2022/06/29 01:11:51;;;;;;;3.53;1.60;;;17.50;56.50;;;;;;5051107;28;20052;-69
2022/06/29 01:14:16;;;;;;;3.58;1.55;;;17.40;56.60;;;;;;5050967;28;21626;-69
2022/06/29 01:16:42;;;;;;;3.65;1.83;;;17.40;56.70;;;;;;5051347;28;20045;-69
2022/06/29 01:19:08;;;;;;;3.58;1.80;;;17.30;56.80;;;;;;5047121;28;20044;-69
2022/06/29 01:21:39;;;;;;;4.60;1.73;;;17.30;57.00;;;;;;5050924;28;20466;-68
2022/06/29 01:24:05;;;;;;;3.97;1.80;;;17.30;57.10;;;;;;5040703;28;20167;-68
2022/06/29 01:26:30;;;;;;;3.92;2.10;;;17.30;57.20;;;;;;5051878;28;20119;-69
2022/06/29 01:28:56;;;;;;;7.95;3.17;;;17.30;57.30;;;;;;5048647;28;20124;-68
2022/06/29 01:31:22;;;;;;;5.13;1.83;;;17.20;57.40;;;;;;5053177;28;20496;-69
2022/06/29 01:33:48;;;;;;;5.78;2.28;;;17.10;57.60;;;;;;5043589;28;20535;-68
2022/06/29 01:36:15;;;;;;;4.28;2.10;;;17.10;57.70;;;;;;5055168;28;20079;-69
2022/06/29 01:38:43;;;;;;;3.88;1.90;;;17.00;57.70;;;;;;5054555;28;20053;-69
2022/06/29 01:41:10;;;;;;;4.38;2.13;;;17.00;57.90;;;;;;5053750;28;20052;-69
2022/06/29 01:43:40;;;;;;;4.25;1.88;;;16.90;58.00;;;;;;5048341;28;20040;-68
2022/06/29 01:46:07;;;;;;;2.97;1.88;;;16.90;58.20;;;;;;5054004;28;20507;-68
2022/06/29 01:48:32;;;;;;;3.80;1.90;;;16.90;58.20;;;;;;5054327;28;20048;-69
2022/06/29 01:50:58;;;;;;;4.35;2.10;;;16.90;58.30;;;;;;5053438;28;20053;-69
2022/06/29 01:53:25;;;;;;;4.05;2.33;;;16.90;58.50;;;;;;5047511;28;20795;-69
2022/06/29 01:55:51;;;;;;;5.40;2.25;;;16.90;58.50;;;;;;5054509;28;20055;-69
2022/06/29 01:58:16;;;;;;;5.75;2.33;;;16.90;58.60;;;;;;5053579;28;20048;-69
2022/06/29 02:00:43;;;;;;;4.60;2.47;;;16.80;58.60;;;;;;5052091;28;20052;-69
2022/06/29 02:03:08;;;;;;;4.78;2.25;;;16.80;58.70;;;;;;5053577;28;20481;-69
2022/06/29 02:05:34;;;;;;;7.38;2.30;;;16.80;58.80;;;;;;5052689;28;20124;-69
2022/06/29 02:08:00;;;;;;;5.68;2.28;;;16.70;58.80;;;;;;5053609;28;20045;-69
2022/06/29 02:10:26;;;;;;;5.38;2.10;;;16.70;59.00;;;;;;5053607;28;20060;-69
2022/06/29 02:12:52;;;;;;;4.10;1.98;;;16.70;59.10;;;;;;5051466;28;20047;-68
2022/06/29 02:15:18;;;;;;;5.70;2.00;;;16.70;59.20;;;;;;5053285;28;20086;-69
2022/06/29 02:17:44;;;;;;;2.90;1.70;;;16.70;59.20;;;;;;5053270;28;20128;-68
2022/06/29 02:20:11;;;;;;;3.92;2.10;;;16.70;59.30;;;;;;5053745;28;20184;-70
2022/06/29 02:22:37;;;;;;;3.95;2.10;;;16.70;59.30;;;;;;5052095;28;20522;-68
2022/06/29 02:25:03;;;;;;;4.25;1.83;;;16.70;59.30;;;;;;5053586;28;20159;-69
2022/06/29 02:27:29;;;;;;;6.13;2.03;;;16.70;59.20;;;;;;5052738;28;20040;-69
2022/06/29 02:29:55;;;;;;;3.70;2.08;;;16.70;59.20;;;;;;5053681;28;20503;-69
2022/06/29 02:35:05;;;;;;;3.25;1.90;;;16.70;59.30;;;;;;5053049;28;20057;-68
2022/06/29 02:37:31;;;;;;;3.75;2.60;;;16.70;59.30;;;;;;5053759;28;20036;-68
2022/06/29 02:39:56;;;;;;;2.63;1.85;;;16.70;59.30;;;;;;5051554;28;20049;-68
2022/06/29 02:42:22;;;;;;;5.05;2.40;;;16.70;59.40;;;;;;5042134;28;20037;-69
2022/06/29 02:44:48;;;;;;;3.78;2.10;;;16.70;59.40;;;;;;5053990;28;20037;-68
2022/06/29 02:47:14;;;;;;;3.97;2.00;;;16.70;59.50;;;;;;5054222;28;20392;-69
2022/06/29 02:49:40;;;;;;;4.25;2.35;;;16.70;59.50;;;;;;5053539;28;20041;-68
2022/06/29 02:52:06;;;;;;;3.28;2.10;;;16.70;59.50;;;;;;5040812;28;20051;-68
2022/06/29 02:54:32;;;;;;;4.10;2.53;;;16.70;59.60;;;;;;5052729;28;20052;-68
2022/06/29 02:56:57;;;;;;;4.57;2.15;;;16.70;59.70;;;;;;5052938;28;20098;-68
2022/06/29 02:59:23;;;;;;;6.75;2.78;;;16.70;59.60;;;;;;5035906;28;20087;-68
2022/06/29 03:01:49;;;;;;;5.43;2.47;;;16.70;59.60;;;;;;5052960;28;20488;-68
2022/06/29 03:04:15;;;;;;;2.95;2.10;;;16.70;59.60;;;;;;5051849;28;20489;-68
2022/06/29 03:06:41;;;;;;;4.60;2.63;;;16.70;59.60;;;;;;5052889;28;20069;-68
2022/06/29 03:09:07;;;;;;;4.93;2.53;;;16.70;59.70;;;;;;5051206;28;20044;-68
2022/06/29 03:11:33;;;;;;;2.88;1.92;;;16.70;59.70;;;;;;5050745;28;20209;-68
2022/06/29 03:13:59;;;;;;;4.35;2.33;;;16.70;59.60;;;;;;5052666;28;20132;-68
2022/06/29 03:16:24;;;;;;;2.55;1.63;;;16.70;59.60;;;;;;5053446;28;20408;-68
2022/06/29 03:18:50;;;;;;;5.47;2.55;;;16.80;59.70;;;;;;5051713;28;20041;-68
2022/06/29 03:21:17;;;;;;;5.93;2.70;;;16.80;59.80;;;;;;5051751;28;20488;-68
2022/06/29 03:23:44;;;;;;;5.35;2.40;;;16.80;59.70;;;;;;5053711;28;20029;-69
2022/06/29 03:26:10;;;;;;;2.85;2.20;;;16.80;59.60;;;;;;5053321;28;20108;-68
2022/06/29 03:28:36;;;;;;;5.07;3.10;;;16.80;59.70;;;;;;5051942;28;20052;-68
2022/06/29 03:31:03;;;;;;;4.90;2.53;;;16.80;59.70;;;;;;5050887;28;20040;-68
2022/06/29 03:33:28;;;;;;;3.67;2.28;;;16.80;59.80;;;;;;5052769;28;20485;-68
2022/06/29 03:35:54;;;;;;;4.82;2.67;;;16.80;59.80;;;;;;5052847;28;20044;-68
2022/06/29 03:38:20;;;;;;;3.30;2.47;;;16.80;59.80;;;;;;5050820;28;20072;-68
2022/06/29 03:40:46;;;;;;;4.90;2.70;;;16.80;59.80;;;;;;5050441;28;20045;-68
2022/06/29 03:43:12;;;;;;;4.70;2.50;;;16.90;59.80;;;;;;5052033;28;20056;-68
2022/06/29 03:45:38;;;;;;;4.68;2.70;;;16.80;59.70;;;;;;5052557;28;20045;-68
2022/06/29 03:48:04;;;;;;;3.80;2.47;;;16.80;59.70;;;;;;5051261;28;20516;-68
2022/06/29 03:50:30;;;;;;;3.30;2.70;;;16.80;59.70;;;;;;5042314;28;20121;-68
2022/06/29 03:52:56;;;;;;;6.15;3.10;;;16.80;59.90;;;;;;5051992;28;20071;-68
2022/06/29 03:55:21;;;;;;;3.92;2.63;;;16.80;59.80;;;;;;5052379;28;20044;-68
2022/06/29 03:57:47;;;;;;;3.65;2.42;;;16.70;59.80;;;;;;5051655;28;20108;-68
2022/06/29 04:00:13;;;;;;;4.47;3.22;;;16.70;59.90;;;;;;5050841;28;20041;-68
2022/06/29 04:02:39;;;;;;;3.70;2.40;;;16.70;60.40;;;;;;5062347;28;20039;-68
2022/06/29 04:05:05;;;;;;;7.35;2.97;;;16.60;60.00;;;;;;5051237;28;20484;-68
2022/06/29 04:07:32;;;;;;;4.75;2.85;;;16.60;60.00;;;;;;5049829;28;20112;-67
2022/06/29 04:10:00;;;;;;;5.60;3.08;;;16.60;60.50;;;;;;5051629;28;20137;-67
2022/06/29 04:12:37;;;;;;;4.57;2.70;;;16.60;60.30;;;;;;5050826;28;20100;-68
2022/06/29 04:15:04;;;;;;;4.07;2.60;;;16.60;60.40;;;;;;5051292;28;20044;-68
2022/06/29 04:17:31;;;;;;;4.32;2.92;;;16.50;60.40;;;;;;5042001;28;20060;-68
2022/06/29 04:19:57;;;;;;;5.90;3.53;;;16.50;60.50;;;;;;5034619;28;20087;-67
2022/06/29 04:22:22;;;;;;;5.65;3.40;;;16.50;60.50;;;;;;5050595;28;20079;-63
2022/06/29 04:24:49;;;;;;;5.03;2.97;;;16.50;60.60;;;;;;5051654;28;20464;-63
2022/06/29 04:27:15;;;;;;;3.58;2.65;;;16.50;61.30;;;;;;5048200;28;20053;-63
2022/06/29 04:29:41;;;;;;;4.90;2.85;;;16.50;60.90;;;;;;5051019;28;20094;-63
2022/06/29 04:32:07;;;;;;;3.03;2.65;;;16.50;61.00;;;;;;5052326;28;20389;-63
2022/06/29 04:34:33;;;;;;;3.90;2.83;;;16.40;61.10;;;;;;5051709;28;20056;-63
2022/06/29 04:36:58;;;;;;;3.45;3.05;;;16.40;61.10;;;;;;5051598;28;20051;-63
2022/06/29 04:39:24;;;;;;;3.65;2.67;;;16.50;61.30;;;;;;5051841;28;20086;-63
2022/06/29 04:41:52;;;;;;;4.43;3.10;;;16.40;61.20;;;;;;5051028;28;20041;-63
2022/06/29 04:44:18;;;;;;;4.80;2.95;;;16.50;61.50;;;;;;5050190;28;20053;-63
2022/06/29 04:46:44;;;;;;;4.28;3.20;;;16.50;61.60;;;;;;5067039;28;20094;-63
2022/06/29 04:49:10;;;;;;;3.85;2.92;;;16.50;61.70;;;;;;5033274;28;20041;-63
2022/06/29 04:51:36;;;;;;;4.15;2.80;;;16.50;61.70;;;;;;5051542;28;20619;-63
2022/06/29 04:54:03;;;;;;;5.20;2.97;;;16.50;61.90;;;;;;5051892;28;20044;-63
2022/06/29 04:56:31;;;;;;;4.78;3.40;;;16.50;61.90;;;;;;5045604;28;20408;-63
2022/06/29 04:58:58;;;;;;;6.55;3.20;;;16.50;62.00;;;;;;5039919;28;20042;-63
2022/06/29 05:01:26;;;;;;;4.32;2.70;;;16.50;62.10;;;;;;5050735;28;20081;-63
2022/06/29 05:03:52;;;;;;;5.85;3.08;;;16.60;62.30;;;;;;5055310;28;20048;-63
2022/06/29 05:06:20;;;;;;;5.75;3.42;;;16.50;62.30;;;;;;5037707;28;20037;-63
2022/06/29 05:08:47;;;;;;;4.43;3.38;;;16.60;62.50;;;;;;5054693;28;20097;-63
2022/06/29 05:11:14;;;;;;;4.72;3.13;;;16.60;62.40;;;;;;5046062;28;20088;-64
2022/06/29 05:13:43;;;;;;;6.43;3.28;;;16.70;62.30;;;;;;5052307;28;20048;-64
2022/06/29 05:16:09;;;;;;;3.58;2.72;;;16.70;62.40;;;;;;5052785;28;20037;-63
2022/06/29 05:18:35;;;;;;;6.47;3.40;;;16.90;62.20;;;;;;5059156;28;20056;-64
2022/06/29 05:21:01;;;;;;;5.25;3.22;;;17.00;62.50;;;;;;5053519;28;20037;-64
2022/06/29 05:23:29;;;;;;;4.85;3.28;;;17.10;61.90;;;;;;5054533;28;20105;-63
2022/06/29 05:25:55;;;;;;;5.05;3.13;;;17.30;61.30;;;;;;5055052;28;20048;-63
2022/06/29 05:28:21;;;;;;;5.68;3.33;;;17.50;60.60;;;;;;5056470;28;20053;-63
2022/06/29 05:30:46;;;;;;;4.80;3.15;;;17.70;60.70;;;;;;5056273;28;20048;-63
2022/06/29 05:33:12;;;;;;;3.97;2.70;;;17.90;59.90;;;;;;5054060;28;20045;-66
2022/06/29 05:35:37;;;;;;;4.68;3.30;;;18.10;59.50;;;;;;5061338;28;20056;-64
2022/06/29 05:38:04;;;;;;;3.88;2.72;;;18.20;58.90;;;;;;5054132;28;20114;-63
2022/06/29 05:40:30;;;;;;;5.57;3.10;;;18.50;58.90;;;;;;5053658;28;20447;-69
2022/06/29 05:42:57;;;;;;;5.80;2.85;;;18.70;58.30;;;;;;5037412;28;20124;-63
2022/06/29 05:45:24;;;;;;;5.60;2.97;;;18.90;57.60;;;;;;5055788;28;20025;-64
2022/06/29 05:47:50;;;;;;;3.80;2.80;;;19.00;57.50;;;;;;5053760;28;20407;-64
2022/06/29 05:50:16;;;;;;;4.38;2.90;;;19.10;56.90;;;;;;5054147;28;20594;-64
2022/06/29 05:52:41;;;;;;;4.18;2.45;;;19.30;56.60;;;;;;5037457;28;20072;-64
2022/06/29 05:55:08;;;;;;;3.97;2.58;;;19.40;56.50;;;;;;5053305;28;20455;-64
2022/06/29 05:57:34;;;;;;;5.50;2.53;;;19.60;56.20;;;;;;5053972;28;20102;-64
2022/06/29 06:00:01;;;;;;;4.00;2.42;;;19.70;55.70;;;;;;5050313;28;20045;-64
2022/06/29 06:02:27;;;;;;;5.70;2.55;;;19.90;55.70;;;;;;5053058;28;20045;-65
2022/06/29 06:04:53;;;;;;;5.07;3.08;;;20.00;55.00;;;;;;5053297;28;20041;-64
2022/06/29 06:07:18;;;;;;;5.28;2.00;;;20.10;54.90;;;;;;5053589;28;20068;-65
2022/06/29 06:09:44;;;;;;;4.47;2.40;;;20.20;54.40;;;;;;5054418;28;20045;-64
2022/06/29 06:12:11;;;;;;;7.05;2.20;;;20.30;54.20;;;;;;5053959;28;20484;-66
2022/06/29 06:14:37;;;;;;;5.13;1.73;;;20.50;54.10;;;;;;5051990;28;20571;-69
2022/06/29 06:17:03;;;;;;;5.18;2.78;;;20.70;53.80;;;;;;5037072;28;20198;-65
2022/06/29 06:19:29;;;;;;;3.65;2.17;;;20.90;53.50;;;;;;5036746;28;20044;-67
2022/06/29 06:21:54;;;;;;;3.80;2.17;;;21.00;53.10;;;;;;5036676;28;20037;-65
2022/06/29 06:24:20;;;;;;;3.17;2.00;;;21.20;52.80;;;;;;5054345;28;20040;-65
2022/06/29 06:26:46;;;;;;;5.95;2.25;;;21.30;52.30;;;;;;5053646;28;20090;-65
2022/06/29 06:29:12;;;;;;;7.72;2.25;;;21.50;51.70;;;;;;5054778;28;20400;-63
2022/06/29 06:31:38;;;;;;;4.10;1.73;;;21.60;51.30;;;;;;5052938;28;20045;-63
2022/06/29 06:34:04;;;;;;;7.00;2.33;;;21.70;51.40;;;;;;5054186;28;20060;-63
2022/06/29 06:36:30;;;;;;;4.25;1.90;;;21.80;50.80;;;;;;5053622;28;20036;-63
2022/06/29 06:38:55;;;;;;;3.10;2.05;;;21.90;51.70;;;;;;5054473;28;20083;-64
2022/06/29 06:41:21;;;;;;;3.63;1.67;;;22.00;51.30;;;;;;5054310;28;20466;-63
2022/06/29 06:43:51;;;;;;;4.22;2.10;;;22.10;51.20;;;;;;5052530;28;20048;-63
2022/06/29 06:46:17;;;;;;;3.80;2.08;;;22.30;50.90;;;;;;5053120;28;20041;-63
2022/06/29 06:48:43;;;;;;;4.50;2.17;;;22.50;50.10;;;;;;5053054;28;20443;-63
2022/06/29 06:51:10;;;;;;;5.40;1.80;;;22.60;49.40;;;;;;5052899;28;20041;-64
2022/06/29 06:53:36;;;;;;;5.72;2.22;;;22.80;48.80;;;;;;5036142;28;20051;-63
2022/06/29 06:56:02;;;;;;;3.40;1.65;;;22.90;47.90;;;;;;5054531;28;20124;-63
2022/06/29 06:58:27;;;;;;;3.10;2.38;;;22.90;47.50;;;;;;5052658;28;20045;-63
2022/06/29 07:00:53;;;;;;;4.15;1.80;;;23.00;47.90;;;;;;5052857;28;20048;-67
2022/06/29 07:03:19;;;;;;;4.07;1.98;;;23.10;48.50;;;;;;5053558;28;20083;-64
2022/06/29 07:05:44;;;;;;;4.53;1.70;;;23.10;48.00;;;;;;5054568;28;20094;-64
2022/06/29 07:08:10;;;;;;;3.95;1.88;;;23.20;47.70;;;;;;5019060;28;20044;-64
2022/06/29 07:10:36;;;;;;;3.90;1.90;;;23.30;47.10;;;;;;5054217;28;20480;-64
2022/06/29 07:13:02;;;;;;;5.05;2.10;;;23.50;46.70;;;;;;5053006;28;20480;-63
2022/06/29 07:15:28;;;;;;;3.33;1.80;;;23.50;46.70;;;;;;5036368;28;20507;-64
2022/06/29 07:17:54;;;;;;;6.00;2.03;;;23.60;47.10;;;;;;5054010;28;20041;-64
2022/06/29 07:20:20;;;;;;;3.40;2.00;;;23.70;47.00;;;;;;5053148;28;20480;-64
2022/06/29 07:22:46;;;;;;;4.03;1.60;;;23.90;46.70;;;;;;5052594;28;20041;-64
2022/06/29 07:25:12;;;;;;;3.85;2.10;;;24.00;46.30;;;;;;5051701;28;20067;-64
2022/06/29 07:27:37;;;;;;;4.63;1.73;;;24.10;46.30;;;;;;5052574;28;20045;-64
2022/06/29 07:30:04;;;;;;;4.22;1.60;;;24.20;46.30;;;;;;5051550;28;20036;-63
2022/06/29 07:32:30;;;;;;;3.80;1.70;;;24.20;45.80;;;;;;5036167;28;20037;-64
2022/06/29 07:34:56;;;;;;;4.88;1.80;;;24.20;46.10;;;;;;5053017;28;20052;-64
2022/06/29 07:37:22;;;;;;;3.03;1.58;;;24.30;46.30;;;;;;5052353;28;20541;-64
2022/06/29 07:39:48;;;;;;;4.32;1.75;;;24.40;45.70;;;;;;5051464;28;20111;-64
2022/06/29 07:42:14;;;;;;;3.10;1.35;;;24.40;45.10;;;;;;5052531;28;20079;-64
2022/06/29 07:44:39;;;;;;;3.78;1.40;;;24.50;45.80;;;;;;5051687;28;20171;-64
2022/06/29 07:47:06;;;;;;;4.63;1.50;;;24.70;44.80;;;;;;5052301;28;20499;-64
2022/06/29 07:49:32;;;;;;;4.80;1.67;;;24.70;44.60;;;;;;5051591;28;20045;-64
2022/06/29 07:51:57;;;;;;;3.70;1.67;;;24.80;44.30;;;;;;5052254;28;20051;-64
2022/06/29 07:54:23;;;;;;;2.88;1.25;;;25.00;44.10;;;;;;5052551;28;20032;-64
2022/06/29 07:56:49;;;;;;;3.25;1.35;;;25.10;43.90;;;;;;5035548;28;20491;-64
2022/06/29 07:59:14;;;;;;;2.95;1.10;;;25.10;44.20;;;;;;5051338;28;20404;-64
2022/06/29 08:01:40;;;;;;;2.70;1.25;;;25.30;44.60;;;;;;5035296;28;20040;-64
2022/06/29 08:04:06;;;;;;;4.20;1.33;;;25.40;44.10;;;;;;5051575;28;20232;-64
2022/06/29 08:06:31;;;;;;;4.72;1.20;;;25.50;44.30;;;;;;5051905;28;20036;-64
2022/06/29 08:08:58;;;;;;;2.15;1.17;;;25.60;43.80;;;;;;5051886;28;20045;-64
2022/06/29 08:11:24;;;;;;;2.55;1.33;;;25.70;44.20;;;;;;5051489;28;20063;-64
2022/06/29 08:13:50;;;;;;;3.72;2.17;;;25.70;43.30;;;;;;5052545;28;20537;-64
2022/06/29 08:16:16;;;;;;;4.65;1.25;;;25.70;43.30;;;;;;5052321;28;20419;-64
2022/06/29 08:18:41;;;;;;;3.25;1.30;;;25.70;43.10;;;;;;5051842;28;20037;-64
2022/06/29 08:21:07;;;;;;;2.88;1.42;;;25.70;42.80;;;;;;5051099;28;20036;-64
2022/06/29 08:23:33;;;;;;;2.58;1.63;;;25.80;43.10;;;;;;5051209;28;20631;-64
2022/06/29 08:25:59;;;;;;;2.63;1.10;;;25.80;42.50;;;;;;5051242;28;20492;-64
2022/06/29 08:28:26;;;;;;;2.55;1.25;;;25.90;42.70;;;;;;5052969;28;20080;-64
2022/06/29 08:30:52;;;;;;;2.63;1.50;;;25.90;42.80;;;;;;5050939;28;20053;-64
2022/06/29 08:33:20;;;;;;;3.47;1.30;;;25.90;43.60;;;;;;5051442;28;20061;-64
2022/06/29 08:35:46;;;;;;;2.85;1.23;;;26.00;42.90;;;;;;5050302;28;20052;-64
2022/06/29 08:38:12;;;;;;;4.00;1.63;;;26.00;42.40;;;;;;5034744;28;20041;-64
2022/06/29 08:40:47;;;;;;;3.53;1.35;;;26.10;42.00;;;;;;5050501;28;20041;-63
2022/06/29 08:43:14;;;;;;;3.45;1.25;;;26.00;42.10;;;;;;5052816;28;20546;-63
2022/06/29 08:45:48;;;;;;;3.15;1.17;;;26.00;41.80;;;;;;5051817;28;20041;-64
2022/06/29 08:48:15;;;;;;;3.70;1.70;;;26.00;42.60;;;;;;5051704;28;20036;-63
2022/06/29 08:50:47;;;;;;;2.45;1.45;;;26.10;41.80;;;;;;5049486;28;20041;-64
2022/06/29 08:53:15;;;;;;;2.97;1.80;;;26.20;42.40;;;;;;5052622;28;20033;-64
2022/06/29 08:55:50;;;;;;;3.33;1.40;;;26.30;42.60;;;;;;5052076;28;20369;-64
2022/06/29 08:58:21;;;;;;;2.30;1.20;;;26.40;41.80;;;;;;5052582;28;20105;-64
2022/06/29 09:00:50;;;;;;;3.05;1.45;;;26.50;42.50;;;;;;5050331;28;20072;-64
2022/06/29 09:03:22;;;;;;;4.47;1.55;;;26.60;42.10;;;;;;5051609;28;20497;-64
2022/06/29 09:05:48;;;;;;;3.97;1.55;;;26.60;42.80;;;;;;5052091;28;20100;-65
2022/06/29 09:08:15;;;;;;;3.45;1.40;;;26.70;43.30;;;;;;5052618;28;20040;-64
2022/06/29 09:10:41;;;;;;;7.05;1.60;;;26.70;42.50;;;;;;5032870;28;20044;-64
2022/06/29 09:13:08;;;;;;;2.47;1.35;;;26.80;41.60;;;;;;5051309;28;20053;-64
2022/06/29 09:15:41;;;;;;;3.05;1.50;;;26.90;41.40;;;;;;5049981;28;20048;-63
2022/06/29 09:18:41;;;;;;;4.30;1.40;;;27.10;41.50;;;;;;5051072;28;20053;-63
2022/06/29 09:21:07;;;;;;;3.05;1.73;;;27.10;40.50;;;;;;5049090;28;20159;-66
2022/06/29 09:23:34;;;;;;;5.03;1.50;;;27.00;40.70;;;;;;5050903;28;20091;-65
2022/06/29 09:26:01;;;;;;;3.83;1.50;;;27.10;40.70;;;;;;5046338;28;20052;-66
2022/06/29 09:28:30;;;;;;;3.72;1.33;;;27.20;40.70;;;;;;5051489;28;20060;-63
2022/06/29 09:33:50;;;;;;;2.80;1.50;;;27.30;40.90;;;;;;5023076;28;20056;-65
2022/06/29 09:36:17;;;;;;;3.47;1.80;;;27.30;40.90;;;;;;5050159;28;20036;-63
2022/06/29 09:38:43;;;;;;;5.38;2.00;;;27.30;40.70;;;;;;5034210;28;20041;-63
2022/06/29 09:41:15;;;;;;;3.00;1.27;;;27.40;40.30;;;;;;5017649;28;20061;-63
2022/06/29 09:43:44;;;;;;;2.55;1.42;;;27.40;40.20;;;;;;5050755;28;20041;-63
2022/06/29 09:46:11;;;;;;;3.47;1.67;;;27.50;40.00;;;;;;5050915;28;20033;-63
2022/06/29 09:48:39;;;;;;;4.43;1.58;;;27.50;39.90;;;;;;5060277;28;20098;-64
2022/06/29 09:53:59;;;;;;;4.40;1.88;;;27.60;39.10;;;;;;5066133;28;20044;-64
2022/06/29 09:56:28;;;;;;;3.58;1.90;;;27.70;40.90;;;;;;5063349;28;20048;-63
2022/06/29 09:58:58;;;;;;;1.70;1.30;;;27.70;40.50;;;;;;5065678;28;20194;-64
2022/06/29 10:04:14;;;;;;;5.03;1.60;;;27.70;40.00;;;;;;5063003;28;20193;-64
2022/06/29 10:06:40;;;;;;;3.28;1.30;;;27.70;40.20;;;;;;5065121;28;20094;-64
2022/06/29 10:09:06;;;;;;;1.80;1.13;;;27.80;39.30;;;;;;5064605;28;20040;-65
2022/06/29 10:14:44;;;;;;;2.67;1.30;;;27.90;38.60;;;;;;5061304;28;20075;-64
2022/06/29 10:17:16;;;;;;;2.33;1.40;;;27.90;39.50;;;;;;5063041;28;20448;-63
2022/06/29 10:20:09;;;;;;;2.13;1.33;;;27.90;38.70;;;;;;5062545;28;20040;-63
2022/06/29 10:22:35;;;;;;;3.90;1.35;;;27.90;38.50;;;;;;5062991;28;20392;-64
2022/06/29 10:25:03;;;;;;;4.63;1.48;;;27.90;38.50;;;;;;5064008;28;20040;-64
2022/06/29 10:27:29;;;;;;;2.25;1.48;;;27.90;37.90;;;;;;5065506;28;20040;-64
2022/06/29 10:30:17;;;;;;;4.90;1.60;;;27.80;37.90;;;;;;5063791;28;20055;-64
2022/06/29 10:32:43;;;;;;;3.10;1.90;;;27.90;38.30;;;;;;5061936;28;20055;-64
2022/06/29 10:35:09;;;;;;;2.15;1.42;;;27.90;38.50;;;;;;5065094;28;20057;-64
2022/06/29 10:37:47;;;;;;;2.38;1.30;;;28.00;38.10;;;;;;5065212;28;20109;-64
2022/06/29 10:40:17;;;;;;;3.40;1.33;;;28.10;38.20;;;;;;5062697;28;20055;-64
2022/06/29 10:45:41;;;;;;;2.80;1.33;;;28.20;37.30;;;;;;5062592;28;20041;-64
2022/06/29 10:48:07;;;;;;;3.22;1.27;;;28.30;37.90;;;;;;5065078;28;20508;-64
2022/06/29 10:50:38;;;;;;;2.50;1.25;;;28.30;37.90;;;;;;5063843;28;20083;-64
2022/06/29 10:53:11;;;;;;;2.22;1.27;;;28.40;37.00;;;;;;5065576;28;20507;-64
2022/06/29 10:55:47;;;;;;;1.48;1.10;;;28.40;36.50;;;;;;5077971;28;20040;-64
2022/06/29 10:58:13;;;;;;;5.97;1.40;;;28.30;36.10;;;;;;5064058;28;20052;-64
2022/06/29 11:00:40;;;;;;;2.50;1.20;;;28.30;35.90;;;;;;5060663;28;20048;-64
2022/06/29 11:03:10;;;;;;;3.35;1.95;;;28.40;35.80;;;;;;5064632;28;20543;-64
2022/06/29 11:05:36;;;;;;;3.42;1.45;;;28.30;36.10;;;;;;5043998;28;20037;-64
2022/06/29 11:13:31;;;;;;;2.17;1.40;;;28.20;37.10;;;;;;5053606;28;20059;-64
2022/06/29 11:15:59;;;;;;;2.75;1.50;;;28.30;37.00;;;;;;5052851;28;20040;-65
2022/06/29 11:18:30;;;;;;;2.05;1.17;;;28.30;37.40;;;;;;5053911;28;20116;-64
2022/06/29 11:21:02;;;;;;;1.77;1.13;;;28.40;36.40;;;;;;5053322;28;20090;-64
2022/06/29 11:23:33;;;;;;;3.65;1.25;;;28.50;35.90;;;;;;5052423;28;20102;-64
2022/06/29 11:26:01;;;;;;;1.88;1.27;;;28.60;35.30;;;;;;5052814;28;20438;-64
2022/06/29 11:28:31;;;;;;;2.78;1.20;;;28.70;34.90;;;;;;5052873;28;20397;-64
2022/06/29 11:31:03;;;;;;;2.38;1.50;;;28.70;35.50;;;;;;5051371;28;20045;-64
2022/06/29 11:33:34;;;;;;;3.80;1.45;;;28.70;35.20;;;;;;5032397;28;20058;-64
2022/06/29 11:36:08;;;;;;;2.67;1.27;;;28.70;34.80;;;;;;5047858;28;20059;-64
2022/06/29 11:38:39;;;;;;;3.40;1.40;;;28.60;35.10;;;;;;5052587;28;20048;-64
2022/06/29 11:41:16;;;;;;;2.70;1.63;;;28.60;35.20;;;;;;5052403;28;20067;-64
2022/06/29 11:43:43;;;;;;;3.40;2.05;;;28.60;36.20;;;;;;5054378;28;20554;-63
2022/06/29 11:46:19;;;;;;;3.22;2.05;;;28.60;35.70;;;;;;5034749;28;20067;-63
2022/06/29 11:51:51;;;;;;;3.45;2.40;;;28.60;37.50;;;;;;5048003;28;20098;-64
2022/06/29 11:54:18;;;;;;;4.15;2.10;;;28.70;38.30;;;;;;5053348;28;20167;-63
2022/06/29 11:56:44;;;;;;;4.00;1.88;;;28.70;38.80;;;;;;5035201;28;20047;-63
2022/06/29 11:59:16;;;;;;;4.25;2.00;;;28.70;38.30;;;;;;5052280;28;20048;-63
2022/06/29 12:01:53;;;;;;;3.15;2.13;;;28.70;38.40;;;;;;5052289;28;20041;-64
2022/06/29 12:04:33;;;;;;;3.53;2.65;;;28.70;38.20;;;;;;5051494;28;20049;-64
2022/06/29 12:07:04;;;;;;;3.63;2.75;;;28.80;37.60;;;;;;5051077;28;20076;-64
2022/06/29 12:09:30;;;;;;;3.40;2.40;;;28.70;37.40;;;;;;5051380;28;20044;-64
2022/06/29 12:11:56;;;;;;;4.53;2.45;;;28.60;38.00;;;;;;5057723;28;20041;-64
2022/06/29 12:14:22;;;;;;;2.90;2.30;;;28.60;39.40;;;;;;5062576;28;20044;-64
2022/06/29 12:16:48;;;;;;;3.80;2.15;;;28.60;39.80;;;;;;5060676;28;20126;-64
2022/06/29 12:19:14;;;;;;;3.17;2.42;;;28.70;39.40;;;;;;5063163;28;20373;-65
2022/06/29 12:21:39;;;;;;;3.20;2.60;;;28.70;39.60;;;;;;5044541;28;20101;-66
2022/06/29 12:24:05;;;;;;;2.80;2.40;;;28.80;39.50;;;;;;5064908;28;20036;-64
2022/06/29 12:26:31;;;;;;;3.72;2.25;;;28.70;39.60;;;;;;5059527;28;20072;-64
2022/06/29 12:28:56;;;;;;;3.08;2.38;;;28.70;38.60;;;;;;5060899;28;20257;-67
2022/06/29 12:31:22;;;;;;;2.80;2.40;;;28.70;37.90;;;;;;5060307;28;20049;-65
2022/06/29 12:33:49;;;;;;;4.43;2.25;;;28.60;38.80;;;;;;5044057;28;20063;-65
2022/06/29 12:36:14;;;;;;;2.75;2.42;;;28.60;38.80;;;;;;5060705;28;20052;-67
2022/06/29 12:38:40;;;;;;;2.70;2.00;;;28.60;39.20;;;;;;5062324;28;20403;-64
2022/06/29 12:41:07;;;;;;;3.97;2.22;;;28.60;38.80;;;;;;5062786;28;20407;-66
2022/06/29 12:43:33;;;;;;;3.85;2.95;;;28.60;38.40;;;;;;5062362;28;20099;-67
2022/06/29 12:45:59;;;;;;;3.33;2.80;;;28.60;38.10;;;;;;5062072;28;20037;-65
2022/06/29 12:48:25;;;;;;;3.40;2.08;;;28.70;37.70;;;;;;5062398;28;20052;-65
2022/06/29 12:50:51;;;;;;;6.10;3.17;;;28.70;37.90;;;;;;5059653;28;20131;-68
2022/06/29 12:53:17;;;;;;;3.00;2.20;;;28.70;38.00;;;;;;5063515;28;20055;-69
2022/06/29 12:55:42;;;;;;;4.32;2.35;;;28.60;37.20;;;;;;5062952;28;20048;-69
2022/06/29 12:58:08;;;;;;;4.38;2.83;;;28.60;37.70;;;;;;5063710;28;20126;-67
2022/06/29 13:00:34;;;;;;;3.95;2.30;;;28.70;38.10;;;;;;5059165;28;20110;-69
2022/06/29 13:03:00;;;;;;;2.90;2.33;;;28.70;38.10;;;;;;5061969;28;20442;-68
2022/06/29 13:05:26;;;;;;;2.60;1.92;;;28.70;37.40;;;;;;5063194;28;20032;-68
2022/06/29 13:07:52;;;;;;;4.32;2.58;;;28.60;37.00;;;;;;5062347;28;20089;-68
2022/06/29 13:10:18;;;;;;;4.03;2.53;;;28.60;37.40;;;;;;5045683;28;20036;-69
2022/06/29 13:12:44;;;;;;;3.40;2.13;;;28.60;38.00;;;;;;5060591;28;21084;-68